createdAt,value
2022-08-10T00:00:57.094Z,17.40
2022-08-10T00:03:24.274Z,17.50
2022-08-10T00:05:54.931Z,17.70
2022-08-10T00:08:25.155Z,17.60
2022-08-10T00:10:54.143Z,17.50
2022-08-10T00:13:22.168Z,17.50
2022-08-10T00:15:54.166Z,17.40
2022-08-10T00:18:31.313Z,17.40
2022-08-10T00:21:03.360Z,17.50
2022-08-10T00:23:30.960Z,17.60
2022-08-10T00:25:58.245Z,17.70
2022-08-10T00:28:25.502Z,17.50
2022-08-10T00:30:52.749Z,17.50
2022-08-10T00:33:21.126Z,17.30
2022-08-10T00:35:48.954Z,17.30
2022-08-10T00:38:16.515Z,17.50
2022-08-10T00:40:43.618Z,17.50
2022-08-10T00:43:10.818Z,17.50
2022-08-10T00:45:38.410Z,17.50
2022-08-10T00:48:06.196Z,17.40
2022-08-10T00:50:36.217Z,17.20
2022-08-10T00:53:03.728Z,17.20
2022-08-10T00:55:31.157Z,17.30
2022-08-10T00:57:58.459Z,17.30
2022-08-10T01:00:26.129Z,17.20
2022-08-10T01:02:53.453Z,17.10
2022-08-10T01:05:21.912Z,17.30
2022-08-10T01:08:27.439Z,17.20
2022-08-10T01:12:27.713Z,17.30
2022-08-10T01:14:17.214Z,17.20
2022-08-10T01:17:00.680Z,17.10
2022-08-10T01:19:42.894Z,17.20
2022-08-10T01:22:43.795Z,17.10
2022-08-10T01:25:18.520Z,17.10
2022-08-10T01:28:12.404Z,17.00
2022-08-10T01:30:43.571Z,17.10
2022-08-10T01:33:59.108Z,17.10
2022-08-10T01:36:43.639Z,17.30
2022-08-10T01:39:16.758Z,17.50
2022-08-10T01:41:47.906Z,17.20
2022-08-10T01:44:28.625Z,17.20
2022-08-10T01:47:26.445Z,17.30
2022-08-10T01:50:02.307Z,17.30
2022-08-10T01:52:31.643Z,17.20
2022-08-10T01:54:59.904Z,17.10
2022-08-10T01:57:32.495Z,16.90
2022-08-10T02:00:02.931Z,17.00
2022-08-10T02:02:34.112Z,17.10
2022-08-10T02:05:05.276Z,17.20
2022-08-10T02:07:34.220Z,17.00
2022-08-10T02:10:09.788Z,17.20
2022-08-10T02:12:41.231Z,17.40
2022-08-10T02:15:13.133Z,17.50
2022-08-10T02:17:57.699Z,17.30
2022-08-10T02:20:44.678Z,17.30
2022-08-10T02:23:21.544Z,17.20
2022-08-10T02:25:50.212Z,15.80
2022-08-10T02:28:31.201Z,17.00
2022-08-10T02:31:15.346Z,17.20
2022-08-10T02:33:56.739Z,17.20
2022-08-10T02:36:31.336Z,17.60
2022-08-10T02:39:04.578Z,17.50
2022-08-10T02:45:03.201Z,17.50
2022-08-10T02:45:21.243Z,17.40
2022-08-10T02:47:51.657Z,17.30
2022-08-10T02:50:34.273Z,17.30
2022-08-10T02:53:54.245Z,17.50
2022-08-10T02:56:06.754Z,17.50
2022-08-10T02:58:36.052Z,17.60
2022-08-10T03:01:08.111Z,17.70
2022-08-10T03:03:50.110Z,17.60
2022-08-10T03:06:22.292Z,17.60
2022-08-10T03:08:50.632Z,17.40
2022-08-10T03:12:36.790Z,17.50
2022-08-10T03:14:16.404Z,17.70
2022-08-10T03:16:44.993Z,17.70
2022-08-10T03:20:35.560Z,17.70
2022-08-10T03:22:05.195Z,17.90
2022-08-10T03:24:33.960Z,17.30
2022-08-10T03:27:02.790Z,17.60
2022-08-10T03:30:23.198Z,17.70
2022-08-10T03:32:23.267Z,17.60
2022-08-10T03:34:51.944Z,17.70
2022-08-10T03:37:19.159Z,17.60
2022-08-10T03:39:46.356Z,17.50
2022-08-10T03:42:15.461Z,17.60
2022-08-10T03:44:47.342Z,17.40
2022-08-10T03:47:20.457Z,17.40
2022-08-10T03:49:49.109Z,17.60
2022-08-10T03:52:17.999Z,17.30
2022-08-10T03:54:47.108Z,17.50
2022-08-10T03:57:15.097Z,17.50
2022-08-10T03:59:42.719Z,17.90
2022-08-10T04:02:44.209Z,17.90
2022-08-10T04:04:57.139Z,17.90
2022-08-10T04:07:24.896Z,18.00
2022-08-10T04:09:56.181Z,17.90
2022-08-10T04:12:29.911Z,17.90
2022-08-10T04:14:57.094Z,18.50
2022-08-10T04:18:03.809Z,18.40
2022-08-10T04:20:34.224Z,18.30
2022-08-10T04:23:06.718Z,18.30
2022-08-10T04:25:34.796Z,18.00
2022-08-10T04:28:03.139Z,17.90
2022-08-10T04:30:32.195Z,18.30
2022-08-10T04:33:00.283Z,18.40
2022-08-10T04:35:29.883Z,18.70
2022-08-10T04:37:58.352Z,18.60
2022-08-10T04:40:29.168Z,18.30
2022-08-10T04:43:07.288Z,18.20
2022-08-10T04:45:50.001Z,18.20
2022-08-10T04:48:41.576Z,18.20
2022-08-10T04:51:10.694Z,18.30
2022-08-10T04:54:03.042Z,18.60
2022-08-10T04:56:31.847Z,18.70
2022-08-10T04:59:00.674Z,18.60
2022-08-10T05:01:28.684Z,19.20
2022-08-10T05:04:35.699Z,19.50
2022-08-10T05:07:03.728Z,19.30
2022-08-10T05:09:31.191Z,19.50
2022-08-10T05:11:58.374Z,19.40
2022-08-10T05:14:25.663Z,18.80
2022-08-10T05:16:56.315Z,18.80
2022-08-10T05:19:25.145Z,18.90
2022-08-10T05:22:10.988Z,18.80
2022-08-10T05:24:38.138Z,18.80
2022-08-10T05:27:10.231Z,18.80
2022-08-10T05:29:38.407Z,18.90
2022-08-10T05:32:05.930Z,19.00
2022-08-10T05:34:33.262Z,19.30
2022-08-10T05:37:00.943Z,19.40
2022-08-10T05:39:32.061Z,19.30
2022-08-10T05:42:01.742Z,19.40
2022-08-10T05:44:30.129Z,19.50
2022-08-10T05:46:57.444Z,19.50
2022-08-10T05:49:25.209Z,19.90
2022-08-10T05:51:52.827Z,19.70
2022-08-10T05:54:20.330Z,19.60
2022-08-10T05:56:56.982Z,20.20
2022-08-10T06:00:30.880Z,20.60
2022-08-10T06:02:41.245Z,19.70
2022-08-10T06:05:16.408Z,20.70
2022-08-10T06:07:49.815Z,20.60
2022-08-10T06:10:19.636Z,20.30
2022-08-10T06:13:19.379Z,20.20
2022-08-10T06:16:00.248Z,20.00
2022-08-10T06:18:28.043Z,20.60
2022-08-10T06:20:55.668Z,20.40
2022-08-10T06:23:25.824Z,20.50
2022-08-10T06:26:09.751Z,20.60
2022-08-10T06:29:02.165Z,20.40
2022-08-10T06:31:48.032Z,20.00
2022-08-10T06:34:40.038Z,20.40
2022-08-10T06:37:08.717Z,20.80
2022-08-10T06:39:37.056Z,21.10
2022-08-10T06:42:14.842Z,21.10
2022-08-10T06:45:10.420Z,21.50
2022-08-10T06:47:52.447Z,21.90
2022-08-10T06:50:45.465Z,22.30
2022-08-10T06:53:20.872Z,21.50
2022-08-10T06:55:58.190Z,21.40
2022-08-10T06:58:30.105Z,20.90
2022-08-10T07:00:58.267Z,21.60
2022-08-10T07:03:34.287Z,21.20
2022-08-10T07:06:03.482Z,21.70
2022-08-10T07:08:33.810Z,21.80
2022-08-10T07:11:03.422Z,22.00
2022-08-10T07:14:16.999Z,22.70
2022-08-10T07:16:21.312Z,22.80
2022-08-10T07:18:49.709Z,22.70
2022-08-10T07:21:19.047Z,21.40
2022-08-10T07:23:57.240Z,20.80
2022-08-10T07:26:29.127Z,21.40
2022-08-10T07:28:57.200Z,22.10
2022-08-10T07:31:33.030Z,22.00
2022-08-10T07:34:28.782Z,22.30
2022-08-10T07:37:03.060Z,21.80
2022-08-10T07:40:02.909Z,21.30
2022-08-10T07:42:24.873Z,21.20
2022-08-10T07:45:02.619Z,21.00
2022-08-10T07:47:53.098Z,21.00
2022-08-10T07:50:25.012Z,21.20
2022-08-10T07:52:55.073Z,21.40
2022-08-10T07:56:02.201Z,21.00
2022-08-10T07:58:16.252Z,21.20
2022-08-10T08:00:45.994Z,21.60
2022-08-10T08:03:15.205Z,21.70
2022-08-10T08:05:58.954Z,21.50
2022-08-10T08:08:32.343Z,22.50
2022-08-10T08:11:01.016Z,22.50
2022-08-10T08:13:29.635Z,22.80
2022-08-10T08:16:16.878Z,23.20
2022-08-10T08:19:03.833Z,23.10
2022-08-10T08:24:09.884Z,22.40
2022-08-10T08:24:33.354Z,21.90
2022-08-10T08:27:05.432Z,21.80
2022-08-10T08:29:36.283Z,21.40
2022-08-10T08:32:04.917Z,22.00
2022-08-10T08:34:33.627Z,21.90
2022-08-10T08:37:03.258Z,21.40
2022-08-10T08:39:37.123Z,21.50
2022-08-10T08:42:26.474Z,21.30
2022-08-10T08:45:21.401Z,21.60
2022-08-10T08:48:12.027Z,22.00
2022-08-10T08:50:57.292Z,22.40
2022-08-10T08:54:01.877Z,22.90
2022-08-10T08:57:05.902Z,23.20
2022-08-10T09:00:06.213Z,22.80
2022-08-10T09:02:55.077Z,22.70
2022-08-10T09:05:58.579Z,22.50
2022-08-10T09:08:53.885Z,22.30
2022-08-10T09:11:58.322Z,22.80
2022-08-10T09:14:59.831Z,23.50
2022-08-10T09:17:52.964Z,23.80
2022-08-10T09:20:34.664Z,23.40
2022-08-10T09:24:04.101Z,22.50
2022-08-10T09:26:43.101Z,22.40
2022-08-10T09:29:15.233Z,23.00
2022-08-10T09:32:54.913Z,22.90
2022-08-10T09:36:22.103Z,22.90
2022-08-10T09:38:01.856Z,22.10
2022-08-10T09:41:00.448Z,22.90
2022-08-10T09:43:42.376Z,23.00
2022-08-10T09:46:34.266Z,22.40
2022-08-10T09:49:22.352Z,23.20
2022-08-10T09:52:14.754Z,23.10
2022-08-10T09:55:10.080Z,22.90
2022-08-10T09:57:54.925Z,23.10
2022-08-10T10:00:32.214Z,23.50
2022-08-10T10:03:26.210Z,22.80
2022-08-10T10:06:30.269Z,23.30
2022-08-10T10:09:10.525Z,23.50
2022-08-10T10:12:09.665Z,23.40
2022-08-10T10:15:10.252Z,23.10
2022-08-10T10:18:19.881Z,23.10
2022-08-10T10:20:55.966Z,23.20
2022-08-10T10:23:42.040Z,23.60
2022-08-10T10:26:48.437Z,23.30
2022-08-10T10:29:58.344Z,23.30
2022-08-10T10:32:57.665Z,23.40
2022-08-10T10:35:52.555Z,22.80
2022-08-10T10:38:29.977Z,23.80
2022-08-10T10:41:04.629Z,24.10
2022-08-10T10:44:17.664Z,23.80
2022-08-10T10:46:57.357Z,24.50
2022-08-10T10:49:51.903Z,24.20
2022-08-10T10:52:38.053Z,24.40
2022-08-10T10:56:13.291Z,25.00
2022-08-10T10:59:54.325Z,25.30
2022-08-10T11:01:59.769Z,25.70
2022-08-10T11:04:59.230Z,25.90
2022-08-10T11:07:42.405Z,26.40
2022-08-10T11:10:33.274Z,24.40
2022-08-10T11:14:25.673Z,24.20
2022-08-10T11:16:24.719Z,24.20
2022-08-10T11:19:12.264Z,24.30
2022-08-10T11:22:03.505Z,24.80
2022-08-10T11:24:50.241Z,24.80
2022-08-10T11:27:39.350Z,25.30
2022-08-10T11:30:10.748Z,24.70
2022-08-10T11:32:52.116Z,25.20
2022-08-10T11:38:51.930Z,25.00
2022-08-10T11:42:09.983Z,24.60
2022-08-10T11:44:40.270Z,24.90
2022-08-10T11:50:13.887Z,26.20
2022-08-10T11:53:08.693Z,26.20
2022-08-10T11:55:36.177Z,26.40
2022-08-10T11:58:32.723Z,26.10
2022-08-10T12:01:09.134Z,26.20
2022-08-10T12:03:39.271Z,25.60
2022-08-10T12:06:13.468Z,26.20
2022-08-10T12:10:05.134Z,27.10
2022-08-10T12:11:34.313Z,27.10
2022-08-10T12:14:39.674Z,26.50
2022-08-10T12:17:16.177Z,25.80
2022-08-10T12:19:59.412Z,25.20
2022-08-10T12:23:12.400Z,25.30
2022-08-10T12:26:10.002Z,26.40
2022-08-10T12:28:50.002Z,25.90
2022-08-10T12:31:25.533Z,26.00
2022-08-10T12:34:06.659Z,26.00
2022-08-10T12:36:49.098Z,25.20
2022-08-10T12:39:36.076Z,24.80
2022-08-10T12:42:34.833Z,25.20
2022-08-10T12:45:12.951Z,25.40
2022-08-10T12:47:57.083Z,25.20
2022-08-10T12:50:34.405Z,25.50
2022-08-10T12:53:11.780Z,25.10
2022-08-10T12:55:39.792Z,25.30
2022-08-10T12:58:58.934Z,24.80
2022-08-10T13:01:16.448Z,28.70
2022-08-10T13:04:23.063Z,27.40
2022-08-10T13:06:41.973Z,27.80
2022-08-10T13:09:09.720Z,26.00
2022-08-10T13:12:36.106Z,28.10
2022-08-10T13:14:46.370Z,30.20
2022-08-10T13:17:20.987Z,32.30
2022-08-10T13:19:55.651Z,31.80
2022-08-10T13:22:30.273Z,29.90
2022-08-10T13:25:01.696Z,29.20
2022-08-10T13:28:00.439Z,27.20
2022-08-10T13:30:35.632Z,30.70
2022-08-10T13:33:11.230Z,30.50
2022-08-10T13:35:39.251Z,29.30
2022-08-10T13:38:09.610Z,27.20
2022-08-10T13:40:38.438Z,30.10
2022-08-10T13:43:08.368Z,31.20
2022-08-10T13:45:43.951Z,29.90
2022-08-10T13:48:19.743Z,27.20
2022-08-10T13:50:49.321Z,27.40
2022-08-10T13:53:18.515Z,28.80
2022-08-10T13:58:38.442Z,27.20
2022-08-10T14:01:23.904Z,25.00
2022-08-10T14:03:53.558Z,25.40
2022-08-10T14:06:29.751Z,24.60
2022-08-10T14:09:05.181Z,26.60
2022-08-10T14:11:36.307Z,29.20
2022-08-10T14:14:24.722Z,29.90
2022-08-10T14:16:53.067Z,29.40
2022-08-10T14:19:26.749Z,27.60
2022-08-10T14:21:55.314Z,26.00
2022-08-10T14:24:25.529Z,27.40
2022-08-10T14:27:06.627Z,25.90
2022-08-10T14:29:43.594Z,27.30
2022-08-10T14:32:13.108Z,28.50
2022-08-10T14:36:16.500Z,26.20
2022-08-10T14:37:48.422Z,24.50
2022-08-10T14:40:18.890Z,24.00
2022-08-10T14:43:02.457Z,24.40
2022-08-10T14:45:42.269Z,24.60
2022-08-10T14:48:47.155Z,25.00
2022-08-10T14:51:19.252Z,24.70
2022-08-10T14:53:54.167Z,24.80
2022-08-10T14:56:34.089Z,24.70
2022-08-10T14:59:07.002Z,24.60
2022-08-10T15:02:00.086Z,24.70
2022-08-10T15:04:28.869Z,24.70
2022-08-10T15:06:57.960Z,24.90
2022-08-10T15:09:59.739Z,24.80
2022-08-10T15:12:36.931Z,24.40
2022-08-10T15:15:09.651Z,23.80
2022-08-10T15:17:45.804Z,23.90
2022-08-10T15:20:21.513Z,23.60
2022-08-10T15:23:01.806Z,23.40
2022-08-10T15:25:30.775Z,23.30
2022-08-10T15:28:10.656Z,23.40
2022-08-10T15:30:44.607Z,23.50
2022-08-10T15:33:57.670Z,23.40
2022-08-10T15:36:43.561Z,23.30
2022-08-10T15:40:02.218Z,23.10
2022-08-10T15:42:10.472Z,23.00
2022-08-10T15:44:44.400Z,23.20
2022-08-10T15:47:20.300Z,23.40
2022-08-10T15:50:06.363Z,23.10
2022-08-10T15:53:00.960Z,23.10
2022-08-10T15:55:44.108Z,23.00
2022-08-10T15:58:19.606Z,23.00
2022-08-10T16:00:59.222Z,22.80
2022-08-10T16:03:41.414Z,22.60
2022-08-10T16:06:13.089Z,22.80
2022-08-10T16:08:57.159Z,23.00
2022-08-10T16:11:46.738Z,23.10
2022-08-10T16:14:15.699Z,23.20
2022-08-10T16:16:48.773Z,23.20
2022-08-10T16:19:25.125Z,23.60
2022-08-10T16:22:05.197Z,24.60
2022-08-10T16:24:52.667Z,23.40
2022-08-10T16:27:22.927Z,23.40
2022-08-10T16:29:57.033Z,23.30
2022-08-10T16:32:25.608Z,23.20
2022-08-10T16:34:54.083Z,22.90
2022-08-10T16:40:09.505Z,22.90
2022-08-10T16:42:44.958Z,22.90
2022-08-10T16:45:17.683Z,23.00
2022-08-10T16:47:51.938Z,22.90
2022-08-10T16:50:42.485Z,22.70
2022-08-10T16:53:13.908Z,22.70
2022-08-10T16:55:50.615Z,22.70
2022-08-10T17:01:21.854Z,22.50
2022-08-10T17:04:07.984Z,22.40
2022-08-10T17:06:48.806Z,22.40
2022-08-10T17:09:22.260Z,22.20
2022-08-10T17:11:52.873Z,22.30
2022-08-10T17:14:25.821Z,22.20
2022-08-10T17:16:57.056Z,22.20
2022-08-10T17:19:26.889Z,22.30
2022-08-10T17:22:14.280Z,22.30
2022-08-10T17:24:46.451Z,22.20
2022-08-10T17:28:21.185Z,22.10
2022-08-10T17:30:13.870Z,22.10
2022-08-10T17:32:56.127Z,22.10
2022-08-10T17:35:28.985Z,22.20
2022-08-10T17:38:25.682Z,22.30
2022-08-10T17:41:18.639Z,22.40
2022-08-10T17:44:02.140Z,22.20
2022-08-10T17:46:40.519Z,22.30
2022-08-10T17:49:13.196Z,22.20
2022-08-10T17:51:42.226Z,22.10
2022-08-10T17:54:21.015Z,22.20
2022-08-10T17:56:51.349Z,22.10
2022-08-10T17:59:24.680Z,22.00
2022-08-10T18:02:01.541Z,21.80
2022-08-10T18:04:41.331Z,21.80
2022-08-10T18:07:11.778Z,21.80
2022-08-10T18:09:49.956Z,21.80
2022-08-10T18:12:36.138Z,21.60
2022-08-10T18:15:13.465Z,21.60
2022-08-10T18:17:45.020Z,21.50
2022-08-10T18:20:14.707Z,21.70
2022-08-10T18:22:49.511Z,21.50
2022-08-10T18:25:23.932Z,21.60
2022-08-10T18:28:01.622Z,21.60
2022-08-10T18:30:36.544Z,21.50
2022-08-10T18:33:08.925Z,21.50
2022-08-10T18:35:37.512Z,21.50
2022-08-10T18:38:06.852Z,21.40
2022-08-10T18:40:38.287Z,21.40
2022-08-10T18:44:02.887Z,21.40
2022-08-10T18:45:58.601Z,21.40
2022-08-10T18:48:40.317Z,21.40
2022-08-10T18:51:09.110Z,21.20
2022-08-10T18:53:48.346Z,21.20
2022-08-10T18:56:21.685Z,21.00
2022-08-10T18:59:06.079Z,21.00
2022-08-10T19:01:58.816Z,21.00
2022-08-10T19:05:01.416Z,21.00
2022-08-10T19:07:45.942Z,21.00
2022-08-10T19:10:50.992Z,20.90
2022-08-10T19:16:35.861Z,20.90
2022-08-10T19:19:22.952Z,20.80
2022-08-10T19:22:29.143Z,20.70
2022-08-10T19:24:59.503Z,20.60
2022-08-10T19:27:32.631Z,20.50
2022-08-10T19:30:11.713Z,20.40
2022-08-10T19:32:46.526Z,20.50
2022-08-10T19:35:23.393Z,20.50
2022-08-10T19:38:00.592Z,20.50
2022-08-10T19:40:56.344Z,20.40
2022-08-10T19:44:01.300Z,20.30
2022-08-10T19:46:45.274Z,20.20
2022-08-10T19:49:40.053Z,20.30
2022-08-10T19:52:33.277Z,20.30
2022-08-10T19:55:24.627Z,20.30
2022-08-10T19:58:16.965Z,20.30
2022-08-10T20:01:06.915Z,20.10
2022-08-10T20:03:55.258Z,20.20
2022-08-10T20:06:31.018Z,20.10
2022-08-10T20:09:27.847Z,20.00
2022-08-10T20:12:07.924Z,19.80
2022-08-10T20:15:02.340Z,20.00
2022-08-10T20:17:50.996Z,20.00
2022-08-10T20:20:40.848Z,20.00
2022-08-10T20:23:16.941Z,19.90
2022-08-10T20:26:07.877Z,19.90
2022-08-10T20:28:43.996Z,19.70
2022-08-10T20:31:17.628Z,19.90
2022-08-10T20:34:07.193Z,19.90
2022-08-10T20:36:40.336Z,19.90
2022-08-10T20:39:16.507Z,19.70
2022-08-10T20:42:07.386Z,19.70
2022-08-10T20:44:43.950Z,19.60
2022-08-10T20:47:26.452Z,19.70
2022-08-10T20:49:56.244Z,19.60
2022-08-10T20:52:26.480Z,19.50
2022-08-10T20:54:59.282Z,19.50
2022-08-10T20:58:04.744Z,19.40
2022-08-10T21:00:23.945Z,19.50
2022-08-10T21:03:21.074Z,19.40
2022-08-10T21:06:36.307Z,19.30
2022-08-10T21:09:37.763Z,19.40
2022-08-10T21:12:27.431Z,19.50
2022-08-10T21:15:10.342Z,19.30
2022-08-10T21:17:49.101Z,19.10
2022-08-10T21:20:32.500Z,19.30
2022-08-10T21:23:05.830Z,19.00
2022-08-10T21:25:44.985Z,19.00
2022-08-10T21:28:19.559Z,18.70
2022-08-10T21:31:26.778Z,18.90
2022-08-10T21:34:14.789Z,18.70
2022-08-10T21:36:55.514Z,18.70
2022-08-10T21:39:42.519Z,18.60
2022-08-10T21:43:00.032Z,18.60
2022-08-10T21:45:59.162Z,18.70
2022-08-10T21:48:57.195Z,18.50
2022-08-10T21:52:04.033Z,18.20
2022-08-10T21:55:57.818Z,18.20
2022-08-10T21:58:42.029Z,18.40
2022-08-10T22:01:39.781Z,18.20
2022-08-10T22:04:26.676Z,18.30
2022-08-10T22:07:14.874Z,18.20
2022-08-10T22:10:05.443Z,18.20
2022-08-10T22:13:00.438Z,18.50
2022-08-10T22:16:10.005Z,18.30
2022-08-10T22:19:03.557Z,18.30
2022-08-10T22:22:19.701Z,18.10
2022-08-10T22:25:28.372Z,18.10
2022-08-10T22:28:18.280Z,18.20
2022-08-10T22:35:04.622Z,18.30
2022-08-10T22:37:56.371Z,18.10
2022-08-10T22:40:43.422Z,17.90
2022-08-10T22:43:48.212Z,17.70
2022-08-10T22:46:42.570Z,17.60
2022-08-10T22:49:10.354Z,17.70
2022-08-10T22:51:51.286Z,17.70
2022-08-10T22:54:46.177Z,17.50
2022-08-10T22:57:34.457Z,17.60
2022-08-10T23:00:20.390Z,17.50
2022-08-10T23:03:16.731Z,17.50
2022-08-10T23:06:14.975Z,17.50
2022-08-10T23:08:47.159Z,17.50
2022-08-10T23:11:33.120Z,17.40
2022-08-10T23:14:06.584Z,17.40
2022-08-10T23:17:12.740Z,17.50
2022-08-10T23:19:46.316Z,17.40
2022-08-10T23:22:16.395Z,17.60
2022-08-10T23:25:07.198Z,17.50
2022-08-10T23:27:40.532Z,17.50
2022-08-10T23:30:17.181Z,17.60
2022-08-10T23:32:51.558Z,17.40
2022-08-10T23:36:31.577Z,17.20
2022-08-10T23:38:12.548Z,17.30
2022-08-10T23:40:46.335Z,17.10
2022-08-10T23:44:00.409Z,17.20
2022-08-10T23:46:24.398Z,17.20
2022-08-10T23:48:54.925Z,17.20
2022-08-10T23:51:38.737Z,17.00
2022-08-10T23:54:23.638Z,16.90
2022-08-10T23:57:01.036Z,16.80
2022-08-10T23:59:32.373Z,17.00
